Time;durP1;ratioP1;P1;durP2;ratioP2;P2;SDS_P1;SDS_P2;PMS_P1;PMS_P2;Temp;Humidity;BMP_temperature;BMP_pressure;BME280_temperature;BME280_humidity;BME280_pressure;Samples;Min_cycle;Max_cycle;Signal;HPM_P1;HPM_P2
2021/12/26 00:00:46;;;;;;;7.10;2.00;;;;;;;;;;5081112;28;20107;-81
2021/12/26 00:03:17;;;;;;;5.75;1.50;;;;;;;;;;5082376;28;20052;-81
2021/12/26 00:05:44;;;;;;;7.45;1.75;;;;;;;;;;5070080;28;20111;-81
2021/12/26 00:08:10;;;;;;;5.32;1.50;;;;;;;;;;5081568;28;20499;-82
2021/12/26 00:10:36;;;;;;;6.45;1.75;;;;;;;;;;5088913;28;20110;-82
2021/12/26 00:13:03;;;;;;;7.32;2.08;;;;;;;;;;5075272;28;20088;-81
2021/12/26 00:15:29;;;;;;;6.55;1.77;;;;;;;;;;5077061;28;20053;-81
2021/12/26 00:17:56;;;;;;;4.30;1.77;;;;;;;;;;5069725;28;20580;-81
2021/12/26 00:20:22;;;;;;;6.43;1.83;;;;;;;;;;5070124;28;20409;-80
2021/12/26 00:22:49;;;;;;;5.13;1.63;;;;;;;;;;5069335;28;20053;-81
2021/12/26 00:25:15;;;;;;;3.92;1.25;;;;;;;;;;5071902;28;20122;-81
2021/12/26 00:27:42;;;;;;;6.65;1.90;;;;;;;;;;5070146;28;20045;-81
2021/12/26 00:30:16;;;;;;;4.97;1.80;;;;;;;;;;5083619;28;20056;-81
2021/12/26 00:32:42;;;;;;;4.95;1.70;;;;;;;;;;5086669;28;20443;-81
2021/12/26 00:35:10;;;;;;;5.30;1.50;;;;;;;;;;5072677;28;20041;-80
2021/12/26 00:37:37;;;;;;;4.60;1.90;;;;;;;;;;5067780;28;20547;-81
2021/12/26 00:40:04;;;;;;;4.20;1.55;;;;;;;;;;5076109;28;20114;-81
2021/12/26 00:42:30;;;;;;;4.97;1.85;;;;;;;;;;5079292;28;20081;-80
2021/12/26 00:44:57;;;;;;;8.07;1.85;;;;;;;;;;5086320;28;20056;-80
2021/12/26 00:47:23;;;;;;;5.60;1.95;;;;;;;;;;5073146;28;20508;-80
2021/12/26 00:49:50;;;;;;;5.13;1.65;;;;;;;;;;5068746;28;20053;-81
2021/12/26 00:52:16;;;;;;;5.00;1.88;;;;;;;;;;5082484;28;20079;-80
2021/12/26 00:54:42;;;;;;;6.18;1.77;;;;;;;;;;5086594;28;20218;-82
2021/12/26 00:57:09;;;;;;;5.00;1.85;;;;;;;;;;5086736;28;20111;-81
2021/12/26 00:59:35;;;;;;;4.22;1.75;;;;;;;;;;5082427;28;20084;-81
2021/12/26 01:02:01;;;;;;;4.30;1.50;;;;;;;;;;5077647;28;20647;-80
2021/12/26 01:04:28;;;;;;;5.05;1.50;;;;;;;;;;5069682;28;20051;-80
2021/12/26 01:06:54;;;;;;;5.30;1.50;;;;;;;;;;5070401;28;20116;-80
2021/12/26 01:09:25;;;;;;;4.63;1.63;;;;;;;;;;5069562;28;20099;-81
2021/12/26 01:11:55;;;;;;;5.40;1.65;;;;;;;;;;5083285;28;20503;-81
2021/12/26 01:14:27;;;;;;;5.10;1.70;;;;;;;;;;5089710;28;20512;-81
2021/12/26 01:17:20;;;;;;;5.03;1.60;;;;;;;;;;5078800;28;20057;-81
2021/12/26 01:19:46;;;;;;;6.90;1.83;;;;;;;;;;5086995;28;20571;-81
2021/12/26 01:22:15;;;;;;;4.32;1.70;;;;;;;;;;5083216;28;20049;-80
2021/12/26 01:24:45;;;;;;;4.80;1.70;;;;;;;;;;5069757;28;20628;-80
2021/12/26 01:27:12;;;;;;;4.63;1.40;;;;;;;;;;5080298;28;20078;-80
2021/12/26 01:29:39;;;;;;;4.75;1.58;;;;;;;;;;5069503;28;20559;-80
2021/12/26 01:32:06;;;;;;;5.00;1.60;;;;;;;;;;5072181;28;20057;-80
2021/12/26 01:34:32;;;;;;;3.95;1.45;;;;;;;;;;5068987;28;20053;-80
2021/12/26 01:36:58;;;;;;;5.47;1.80;;;;;;;;;;5069270;28;20092;-80
2021/12/26 01:39:25;;;;;;;6.20;1.90;;;;;;;;;;5068724;28;20052;-80
2021/12/26 01:41:52;;;;;;;5.68;1.60;;;;;;;;;;5079538;28;20132;-80
2021/12/26 01:44:18;;;;;;;4.40;1.60;;;;;;;;;;5079328;28;20134;-80
2021/12/26 01:46:45;;;;;;;4.72;1.40;;;;;;;;;;5083429;28;20060;-80
2021/12/26 01:49:19;;;;;;;4.43;1.60;;;;;;;;;;5089994;28;20083;-80
2021/12/26 01:51:46;;;;;;;5.15;2.17;;;;;;;;;;5080488;28;20049;-80
2021/12/26 01:54:16;;;;;;;5.45;1.67;;;;;;;;;;5070442;28;20143;-80
2021/12/26 01:56:43;;;;;;;5.38;1.83;;;;;;;;;;5087922;28;20088;-80
2021/12/26 01:59:11;;;;;;;4.88;1.63;;;;;;;;;;5089407;28;20056;-79
2021/12/26 02:01:37;;;;;;;4.15;1.45;;;;;;;;;;5087362;28;20629;-80
2021/12/26 02:04:04;;;;;;;5.05;1.42;;;;;;;;;;5076931;28;21261;-80
2021/12/26 02:06:30;;;;;;;4.93;1.63;;;;;;;;;;5087395;28;20053;-80
2021/12/26 02:08:57;;;;;;;4.63;1.67;;;;;;;;;;5072000;28;20111;-80
2021/12/26 02:11:23;;;;;;;4.82;1.60;;;;;;;;;;5071763;28;20053;-80
2021/12/26 02:13:49;;;;;;;3.65;1.20;;;;;;;;;;5070930;28;20057;-80
2021/12/26 02:16:16;;;;;;;9.25;1.90;;;;;;;;;;5081412;28;20076;-80
2021/12/26 02:18:42;;;;;;;6.15;1.67;;;;;;;;;;5071697;28;20088;-80
2021/12/26 02:24:04;;;;;;;4.05;1.60;;;;;;;;;;5083505;28;20295;-79
2021/12/26 02:29:15;;;;;;;6.03;1.50;;;;;;;;;;5070304;28;20053;-80
2021/12/26 02:31:42;;;;;;;5.55;1.70;;;;;;;;;;5069428;28;20103;-80
2021/12/26 02:34:08;;;;;;;5.82;1.80;;;;;;;;;;5080548;28;20098;-79
2021/12/26 02:36:35;;;;;;;5.32;1.50;;;;;;;;;;5074795;28;20134;-80
2021/12/26 02:39:01;;;;;;;3.97;1.30;;;;;;;;;;5071154;28;20081;-80
2021/12/26 02:41:28;;;;;;;3.33;1.40;;;;;;;;;;5068548;28;20520;-79
2021/12/26 02:43:54;;;;;;;6.40;1.80;;;;;;;;;;5071157;28;20052;-80
2021/12/26 02:46:21;;;;;;;4.75;2.10;;;;;;;;;;5090976;28;20052;-79
2021/12/26 02:48:47;;;;;;;4.45;1.73;;;;;;;;;;5077317;28;20055;-79
2021/12/26 02:51:13;;;;;;;3.42;1.33;;;;;;;;;;5074972;28;20057;-80
2021/12/26 02:53:40;;;;;;;5.57;1.80;;;;;;;;;;5070766;28;20052;-80
2021/12/26 02:56:06;;;;;;;4.53;1.50;;;;;;;;;;5068549;28;20064;-79
2021/12/26 02:58:33;;;;;;;8.35;2.25;;;;;;;;;;5071390;28;20049;-79
2021/12/26 03:01:04;;;;;;;4.65;1.58;;;;;;;;;;5068621;28;20049;-79
2021/12/26 03:03:31;;;;;;;4.80;1.65;;;;;;;;;;5075399;28;20053;-79
2021/12/26 03:06:01;;;;;;;4.10;1.55;;;;;;;;;;5086865;28;20080;-79
2021/12/26 03:08:27;;;;;;;3.60;1.45;;;;;;;;;;5078099;28;20554;-79
2021/12/26 03:10:54;;;;;;;4.85;1.40;;;;;;;;;;5078621;28;20102;-79
2021/12/26 03:13:21;;;;;;;4.55;1.35;;;;;;;;;;5103946;28;20075;-79
2021/12/26 03:15:48;;;;;;;4.40;1.70;;;;;;;;;;5089495;28;20053;-79
2021/12/26 03:18:14;;;;;;;5.47;1.85;;;;;;;;;;5082063;28;20106;-79
2021/12/26 03:20:42;;;;;;;5.30;1.67;;;;;;;;;;5086403;28;20087;-79
2021/12/26 03:23:10;;;;;;;4.20;1.52;;;;;;;;;;5074786;28;20057;-79
2021/12/26 03:25:37;;;;;;;4.05;1.70;;;;;;;;;;5084818;28;20056;-79
2021/12/26 03:28:04;;;;;;;4.05;1.60;;;;;;;;;;5088522;28;20052;-79
2021/12/26 03:30:31;;;;;;;4.63;1.75;;;;;;;;;;5078086;28;20114;-79
2021/12/26 03:32:59;;;;;;;5.03;1.60;;;;;;;;;;5087382;28;20056;-79
2021/12/26 03:35:26;;;;;;;4.75;1.88;;;;;;;;;;5089089;28;20142;-79
2021/12/26 03:37:53;;;;;;;4.63;1.60;;;;;;;;;;5076274;28;20053;-79
2021/12/26 03:40:19;;;;;;;5.72;1.50;;;;;;;;;;5072854;28;20061;-79
2021/12/26 03:42:46;;;;;;;3.97;1.70;;;;;;;;;;5068602;28;20087;-79
2021/12/26 03:45:33;;;;;;;4.50;1.40;;;;;;;;;;5078755;28;20056;-79
2021/12/26 03:47:59;;;;;;;4.88;1.65;;;;;;;;;;5087578;28;20145;-79
2021/12/26 03:50:28;;;;;;;6.03;1.60;;;;;;;;;;5087025;28;20313;-79
2021/12/26 03:52:57;;;;;;;4.88;1.70;;;;;;;;;;5082828;28;20084;-79
2021/12/26 03:55:25;;;;;;;5.47;1.92;;;;;;;;;;5076908;28;20514;-79
2021/12/26 03:57:52;;;;;;;4.65;1.52;;;;;;;;;;5078108;28;20090;-79
2021/12/26 04:00:20;;;;;;;4.38;1.42;;;;;;;;;;5069754;28;20124;-79
2021/12/26 04:02:46;;;;;;;4.20;1.45;;;;;;;;;;5077060;28;20106;-79
2021/12/26 04:05:13;;;;;;;4.88;1.60;;;;;;;;;;5088813;28;20497;-79
2021/12/26 04:07:40;;;;;;;4.00;1.50;;;;;;;;;;5073163;28;20060;-79
2021/12/26 04:10:08;;;;;;;4.75;1.58;;;;;;;;;;5068285;28;20172;-80
2021/12/26 04:12:36;;;;;;;4.57;1.55;;;;;;;;;;5074645;28;20177;-79
2021/12/26 04:15:05;;;;;;;4.65;1.70;;;;;;;;;;5073371;28;20084;-79
2021/12/26 04:17:31;;;;;;;4.00;1.70;;;;;;;;;;5085280;28;20106;-79
2021/12/26 04:19:58;;;;;;;4.80;1.50;;;;;;;;;;5089475;28;20052;-79
2021/12/26 04:22:24;;;;;;;4.25;1.50;;;;;;;;;;5078204;28;20045;-79
2021/12/26 04:24:51;;;;;;;4.47;1.50;;;;;;;;;;5073253;28;20114;-79
2021/12/26 04:27:17;;;;;;;5.20;1.63;;;;;;;;;;5088178;28;20102;-79
2021/12/26 04:29:43;;;;;;;4.85;1.73;;;;;;;;;;5069357;28;20091;-79
2021/12/26 04:32:10;;;;;;;4.57;1.63;;;;;;;;;;5083388;28;20114;-79
2021/12/26 04:34:36;;;;;;;3.92;1.35;;;;;;;;;;5078750;28;20516;-79
2021/12/26 04:37:02;;;;;;;5.47;1.75;;;;;;;;;;5069365;28;20053;-79
2021/12/26 04:39:29;;;;;;;5.43;1.55;;;;;;;;;;5081552;28;20087;-79
2021/12/26 04:41:55;;;;;;;4.00;1.80;;;;;;;;;;5086916;28;20523;-79
2021/12/26 04:44:24;;;;;;;4.13;1.25;;;;;;;;;;5068237;28;20057;-78
2021/12/26 04:46:50;;;;;;;3.63;1.50;;;;;;;;;;5073932;28;20063;-79
2021/12/26 04:49:17;;;;;;;4.43;1.65;;;;;;;;;;5077729;28;20091;-79
2021/12/26 04:51:43;;;;;;;5.60;1.70;;;;;;;;;;5090210;28;20670;-79
2021/12/26 04:54:10;;;;;;;3.72;1.42;;;;;;;;;;5073083;28;20060;-79
2021/12/26 04:56:37;;;;;;;4.75;1.63;;;;;;;;;;5080413;28;20052;-79
2021/12/26 04:59:04;;;;;;;4.18;1.60;;;;;;;;;;5078761;28;20713;-78
2021/12/26 05:01:30;;;;;;;5.90;1.33;;;;;;;;;;5070400;28;20084;-79
2021/12/26 05:03:57;;;;;;;3.45;1.38;;;;;;;;;;5085508;28;20044;-79
2021/12/26 05:06:26;;;;;;;3.70;1.45;;;;;;;;;;5083335;28;20247;-79
2021/12/26 05:08:52;;;;;;;5.18;1.55;;;;;;;;;;5070208;28;20053;-79
2021/12/26 05:11:19;;;;;;;4.45;1.63;;;;;;;;;;5070455;28;20122;-79
2021/12/26 05:13:45;;;;;;;4.20;1.38;;;;;;;;;;5079430;28;20083;-79
2021/12/26 05:16:12;;;;;;;3.80;1.40;;;;;;;;;;5077688;28;20107;-79
2021/12/26 05:18:38;;;;;;;4.72;1.80;;;;;;;;;;5072701;28;20053;-79
2021/12/26 05:21:05;;;;;;;3.88;1.50;;;;;;;;;;5071755;28;20103;-79
2021/12/26 05:23:31;;;;;;;5.72;1.40;;;;;;;;;;5080054;28;20870;-79
2021/12/26 05:25:57;;;;;;;6.00;2.15;;;;;;;;;;5075677;28;20670;-79
2021/12/26 05:28:24;;;;;;;4.88;1.25;;;;;;;;;;5080963;28;20495;-79
2021/12/26 05:30:50;;;;;;;3.58;1.30;;;;;;;;;;5082825;28;20060;-79
2021/12/26 05:33:16;;;;;;;4.50;1.50;;;;;;;;;;5090663;28;20048;-79
2021/12/26 05:35:43;;;;;;;4.07;1.45;;;;;;;;;;5085990;28;20132;-79
2021/12/26 05:38:09;;;;;;;5.07;1.77;;;;;;;;;;5079670;28;20084;-79
2021/12/26 05:40:35;;;;;;;5.05;1.70;;;;;;;;;;5077154;28;20053;-79
2021/12/26 05:43:02;;;;;;;5.10;1.52;;;;;;;;;;5079315;28;20056;-79
2021/12/26 05:45:28;;;;;;;3.90;1.40;;;;;;;;;;5081454;28;20057;-78
2021/12/26 05:47:55;;;;;;;4.45;1.60;;;;;;;;;;5084874;28;20077;-78
2021/12/26 05:50:21;;;;;;;4.13;1.58;;;;;;;;;;5086795;28;20057;-79
2021/12/26 05:52:48;;;;;;;4.15;1.48;;;;;;;;;;5084890;28;20032;-79
2021/12/26 05:55:15;;;;;;;4.13;1.48;;;;;;;;;;5080920;28;20053;-78
2021/12/26 05:57:41;;;;;;;4.13;1.33;;;;;;;;;;5082409;28;20084;-78
2021/12/26 06:00:14;;;;;;;5.05;1.70;;;;;;;;;;5079951;28;20148;-78
2021/12/26 06:02:40;;;;;;;4.20;1.52;;;;;;;;;;5082051;28;20087;-78
2021/12/26 06:05:07;;;;;;;5.75;2.13;;;;;;;;;;5081807;28;20423;-78
2021/12/26 06:07:34;;;;;;;4.55;1.45;;;;;;;;;;5079502;28;20128;-78
2021/12/26 06:10:00;;;;;;;5.05;1.60;;;;;;;;;;5084126;28;20052;-78
2021/12/26 06:12:26;;;;;;;4.32;1.73;;;;;;;;;;5082412;28;20543;-78
2021/12/26 06:14:53;;;;;;;3.85;1.55;;;;;;;;;;5066817;28;20077;-78
2021/12/26 06:17:19;;;;;;;4.68;1.50;;;;;;;;;;5086232;28;20080;-78
2021/12/26 06:19:45;;;;;;;5.60;1.58;;;;;;;;;;5084009;28;20056;-78
2021/12/26 06:22:12;;;;;;;5.30;1.63;;;;;;;;;;5087405;28;20092;-77
2021/12/26 06:24:38;;;;;;;4.75;1.52;;;;;;;;;;5069264;28;20089;-78
2021/12/26 06:27:04;;;;;;;5.75;1.83;;;;;;;;;;5067608;28;20088;-78
2021/12/26 06:29:31;;;;;;;4.72;1.73;;;;;;;;;;5076245;28;20148;-78
2021/12/26 06:31:57;;;;;;;4.45;1.70;;;;;;;;;;5074220;28;20135;-78
2021/12/26 06:34:28;;;;;;;5.10;1.60;;;;;;;;;;5083280;28;20045;-78
2021/12/26 06:36:54;;;;;;;4.05;1.60;;;;;;;;;;5077109;28;20091;-78
2021/12/26 06:39:21;;;;;;;5.18;1.55;;;;;;;;;;5081135;28;20089;-78
2021/12/26 06:41:47;;;;;;;4.72;1.70;;;;;;;;;;5086088;28;20080;-78
2021/12/26 06:44:14;;;;;;;5.70;1.88;;;;;;;;;;5085718;28;20056;-78
2021/12/26 06:46:42;;;;;;;4.97;1.70;;;;;;;;;;5077734;28;20068;-78
2021/12/26 06:49:08;;;;;;;4.00;1.60;;;;;;;;;;5075411;28;20578;-78
2021/12/26 06:51:34;;;;;;;4.45;1.80;;;;;;;;;;5079903;28;20430;-78
2021/12/26 06:54:01;;;;;;;6.15;1.73;;;;;;;;;;5071281;28;20157;-78
2021/12/26 06:56:27;;;;;;;6.80;2.10;;;;;;;;;;5077188;28;20633;-78
2021/12/26 06:58:54;;;;;;;3.90;1.63;;;;;;;;;;5077752;28;20056;-78
2021/12/26 07:01:20;;;;;;;5.85;1.98;;;;;;;;;;5084063;28;20056;-78
2021/12/26 07:03:47;;;;;;;4.55;1.60;;;;;;;;;;5076913;28;20052;-78
2021/12/26 07:06:17;;;;;;;5.55;1.77;;;;;;;;;;5072476;28;20575;-78
2021/12/26 07:08:43;;;;;;;4.97;1.63;;;;;;;;;;5076267;28;20087;-78
2021/12/26 07:11:09;;;;;;;4.88;1.80;;;;;;;;;;5082529;28;20083;-78
2021/12/26 07:13:36;;;;;;;5.47;2.00;;;;;;;;;;5077092;28;20076;-78
2021/12/26 07:16:02;;;;;;;4.95;1.70;;;;;;;;;;5068527;28;20488;-78
2021/12/26 07:18:29;;;;;;;5.10;1.63;;;;;;;;;;5065267;28;20535;-78
2021/12/26 07:20:55;;;;;;;5.35;1.92;;;;;;;;;;5077615;28;20080;-78
2021/12/26 07:23:22;;;;;;;3.67;1.50;;;;;;;;;;5072783;28;20060;-78
2021/12/26 07:25:48;;;;;;;7.65;1.90;;;;;;;;;;5069542;28;20052;-78
2021/12/26 07:28:14;;;;;;;4.35;1.40;;;;;;;;;;5079435;28;20087;-78
2021/12/26 07:30:41;;;;;;;4.60;1.80;;;;;;;;;;5083719;28;20205;-79
2021/12/26 07:33:07;;;;;;;7.03;1.65;;;;;;;;;;5084842;28;20068;-79
2021/12/26 07:35:35;;;;;;;5.03;1.60;;;;;;;;;;5079049;28;20084;-79
2021/12/26 07:38:01;;;;;;;6.13;1.80;;;;;;;;;;5079349;28;20066;-79
2021/12/26 07:40:27;;;;;;;5.05;1.70;;;;;;;;;;5083876;28;20060;-79
2021/12/26 07:42:54;;;;;;;5.55;1.70;;;;;;;;;;5082191;28;20102;-78
2021/12/26 07:45:20;;;;;;;5.03;1.80;;;;;;;;;;5077105;27;20120;-78
2021/12/26 07:47:47;;;;;;;5.22;1.95;;;;;;;;;;5084941;28;20060;-79
2021/12/26 07:50:13;;;;;;;4.82;2.00;;;;;;;;;;5075296;28;20140;-79
2021/12/26 07:52:42;;;;;;;6.68;1.80;;;;;;;;;;5075378;28;20510;-79
2021/12/26 07:55:13;;;;;;;4.65;2.00;;;;;;;;;;5081163;28;20576;-78
2021/12/26 07:57:44;;;;;;;6.50;2.00;;;;;;;;;;5075509;28;20076;-79
2021/12/26 08:00:10;;;;;;;3.83;1.52;;;;;;;;;;5077957;28;20045;-78
2021/12/26 08:02:37;;;;;;;4.32;1.70;;;;;;;;;;5078041;28;20538;-78
2021/12/26 08:05:04;;;;;;;6.55;2.20;;;;;;;;;;5080540;28;20053;-78
2021/12/26 08:07:32;;;;;;;7.82;2.03;;;;;;;;;;5084247;28;20156;-78
2021/12/26 08:09:58;;;;;;;5.70;2.25;;;;;;;;;;5070199;28;20074;-78
2021/12/26 08:12:25;;;;;;;4.03;1.58;;;;;;;;;;5084277;28;20110;-78
2021/12/26 08:14:51;;;;;;;5.30;2.10;;;;;;;;;;5079641;28;20045;-79
2021/12/26 08:17:17;;;;;;;4.80;1.77;;;;;;;;;;5086918;28;20048;-78
2021/12/26 08:19:44;;;;;;;4.43;1.90;;;;;;;;;;5075271;28;20103;-78
2021/12/26 08:22:10;;;;;;;5.28;1.70;;;;;;;;;;5088600;28;20134;-78
2021/12/26 08:24:36;;;;;;;7.72;2.33;;;;;;;;;;5077067;28;20102;-78
2021/12/26 08:27:03;;;;;;;6.68;2.20;;;;;;;;;;5082458;28;20057;-78
2021/12/26 08:29:29;;;;;;;4.57;1.90;;;;;;;;;;5073563;28;20167;-78
2021/12/26 08:31:58;;;;;;;4.68;1.67;;;;;;;;;;5078870;28;20084;-78
2021/12/26 08:34:25;;;;;;;4.15;1.80;;;;;;;;;;5077669;28;20056;-78
2021/12/26 08:37:00;;;;;;;6.55;1.88;;;;;;;;;;5077305;28;20057;-78
2021/12/26 08:39:28;;;;;;;5.80;2.10;;;;;;;;;;5065157;28;20566;-78
2021/12/26 08:41:55;;;;;;;5.72;2.25;;;;;;;;;;5076940;28;20053;-78
2021/12/26 08:44:22;;;;;;;6.30;2.55;;;;;;;;;;5084214;28;20581;-78
2021/12/26 08:46:49;;;;;;;4.82;2.13;;;;;;;;;;5087756;28;20057;-78
2021/12/26 08:49:16;;;;;;;4.88;1.63;;;;;;;;;;5066752;28;20111;-78
2021/12/26 08:51:42;;;;;;;5.43;2.10;;;;;;;;;;5086330;28;20053;-78
2021/12/26 08:54:09;;;;;;;5.40;1.90;;;;;;;;;;5089052;28;20134;-79
2021/12/26 08:56:37;;;;;;;7.00;2.20;;;;;;;;;;5077832;28;20140;-78
2021/12/26 08:59:04;;;;;;;6.47;2.17;;;;;;;;;;5066753;28;20561;-78
2021/12/26 09:01:30;;;;;;;5.00;2.00;;;;;;;;;;5084500;28;20076;-78
2021/12/26 09:03:57;;;;;;;5.95;2.50;;;;;;;;;;5067637;28;20569;-78
2021/12/26 09:06:23;;;;;;;4.70;2.03;;;;;;;;;;5065329;28;20052;-78
2021/12/26 09:08:50;;;;;;;6.55;2.53;;;;;;;;;;5066294;28;20103;-78
2021/12/26 09:11:16;;;;;;;6.13;2.17;;;;;;;;;;5073461;28;20137;-78
2021/12/26 09:13:44;;;;;;;6.60;2.20;;;;;;;;;;5070079;28;20052;-78
2021/12/26 09:16:11;;;;;;;6.05;1.90;;;;;;;;;;5067368;28;20085;-77
2021/12/26 09:18:38;;;;;;;5.30;1.98;;;;;;;;;;5069151;28;20108;-77
2021/12/26 09:21:04;;;;;;;5.80;2.25;;;;;;;;;;5070378;28;20084;-77
2021/12/26 09:23:31;;;;;;;6.43;2.50;;;;;;;;;;5079843;28;20056;-77
2021/12/26 09:25:57;;;;;;;5.70;2.08;;;;;;;;;;5088499;28;20220;-77
2021/12/26 09:28:25;;;;;;;4.93;2.30;;;;;;;;;;5072824;28;20064;-77
2021/12/26 09:30:52;;;;;;;5.57;2.17;;;;;;;;;;5072808;28;20515;-77
2021/12/26 09:33:21;;;;;;;4.85;2.05;;;;;;;;;;5079014;28;20084;-77
2021/12/26 09:35:48;;;;;;;6.13;2.55;;;;;;;;;;5081679;28;20604;-77
2021/12/26 09:38:14;;;;;;;4.55;1.98;;;;;;;;;;5072673;28;20557;-78
2021/12/26 09:40:41;;;;;;;4.70;2.15;;;;;;;;;;5086647;28;20084;-77
2021/12/26 09:43:07;;;;;;;6.18;2.20;;;;;;;;;;5089717;28;20661;-77
2021/12/26 09:45:34;;;;;;;5.75;2.45;;;;;;;;;;5086280;28;20060;-77
2021/12/26 09:48:00;;;;;;;5.18;2.42;;;;;;;;;;5088356;28;20057;-77
2021/12/26 09:50:27;;;;;;;4.55;1.95;;;;;;;;;;5085385;28;20053;-78
2021/12/26 09:52:53;;;;;;;4.15;1.63;;;;;;;;;;5075404;28;20553;-77
2021/12/26 09:55:21;;;;;;;5.38;2.17;;;;;;;;;;5070234;28;20057;-77
2021/12/26 09:57:47;;;;;;;4.78;2.00;;;;;;;;;;5079713;28;20132;-77
2021/12/26 10:00:21;;;;;;;4.93;2.22;;;;;;;;;;5074671;28;20095;-78
2021/12/26 10:03:06;;;;;;;5.45;2.22;;;;;;;;;;5084365;28;20087;-77
2021/12/26 10:05:53;;;;;;;6.10;2.88;;;;;;;;;;5070218;28;20053;-77
2021/12/26 10:08:19;;;;;;;7.35;2.65;;;;;;;;;;5093342;28;20067;-77
2021/12/26 10:11:04;;;;;;;5.70;2.20;;;;;;;;;;5086225;28;20086;-77
2021/12/26 10:13:40;;;;;;;4.88;2.20;;;;;;;;;;5076926;28;20085;-78
2021/12/26 10:16:06;;;;;;;5.35;2.40;;;;;;;;;;5072363;28;20500;-77
2021/12/26 10:18:39;;;;;;;8.13;2.42;;;;;;;;;;5076138;28;20055;-77
2021/12/26 10:21:23;;;;;;;4.47;2.00;;;;;;;;;;5069673;28;20084;-77
2021/12/26 10:23:50;;;;;;;5.72;2.13;;;;;;;;;;5080327;28;20504;-77
2021/12/26 10:26:17;;;;;;;6.78;2.10;;;;;;;;;;5068223;28;20081;-77
2021/12/26 10:29:02;;;;;;;6.25;2.17;;;;;;;;;;5073479;28;20052;-79
2021/12/26 10:31:28;;;;;;;6.72;2.55;;;;;;;;;;5076962;28;20052;-78
2021/12/26 10:33:55;;;;;;;5.65;2.35;;;;;;;;;;5080290;28;20115;-77
2021/12/26 10:36:21;;;;;;;6.45;2.50;;;;;;;;;;5065368;28;20337;-77
2021/12/26 10:39:07;;;;;;;7.80;2.72;;;;;;;;;;5066641;28;20087;-77
2021/12/26 10:41:33;;;;;;;7.68;2.80;;;;;;;;;;5069674;28;20107;-78
2021/12/26 10:43:59;;;;;;;6.40;2.75;;;;;;;;;;5065778;28;20587;-77
2021/12/26 10:46:29;;;;;;;4.63;2.20;;;;;;;;;;5076017;28;20053;-77
2021/12/26 10:48:55;;;;;;;7.53;2.88;;;;;;;;;;5066243;28;20080;-78
2021/12/26 10:51:32;;;;;;;7.22;2.78;;;;;;;;;;5072304;28;20092;-77
2021/12/26 10:54:11;;;;;;;7.35;2.80;;;;;;;;;;5086412;28;20055;-78
2021/12/26 10:56:40;;;;;;;7.55;2.95;;;;;;;;;;5091430;27;20582;-78
2021/12/26 10:59:20;;;;;;;5.63;2.67;;;;;;;;;;5082354;28;20588;-78
2021/12/26 11:01:48;;;;;;;6.05;2.88;;;;;;;;;;5085657;27;20511;-77
2021/12/26 11:04:15;;;;;;;7.15;2.80;;;;;;;;;;5077713;28;20109;-77
2021/12/26 11:07:01;;;;;;;7.07;2.75;;;;;;;;;;5075172;28;20112;-77
2021/12/26 11:09:27;;;;;;;7.55;3.25;;;;;;;;;;5071131;28;20053;-77
2021/12/26 11:12:02;;;;;;;6.65;3.00;;;;;;;;;;5076787;28;20567;-77
2021/12/26 11:14:29;;;;;;;6.38;2.95;;;;;;;;;;5076137;28;20080;-77
2021/12/26 11:16:55;;;;;;;6.35;2.90;;;;;;;;;;5085536;28;20107;-77
2021/12/26 11:19:41;;;;;;;7.15;3.00;;;;;;;;;;5081586;28;20098;-78
2021/12/26 11:22:08;;;;;;;8.07;2.95;;;;;;;;;;5087004;28;20107;-78
2021/12/26 11:24:34;;;;;;;7.85;3.20;;;;;;;;;;5082791;28;20077;-78
2021/12/26 11:27:02;;;;;;;7.50;2.95;;;;;;;;;;5079976;28;20515;-78
2021/12/26 11:29:28;;;;;;;10.05;3.78;;;;;;;;;;5083545;28;20064;-78
2021/12/26 11:31:55;;;;;;;6.95;3.00;;;;;;;;;;5069910;28;20135;-78
2021/12/26 11:34:22;;;;;;;10.00;3.63;;;;;;;;;;5077506;28;20539;-78
2021/12/26 11:36:49;;;;;;;9.27;3.58;;;;;;;;;;5083682;28;20392;-78
2021/12/26 11:39:16;;;;;;;9.45;3.67;;;;;;;;;;5078638;28;20512;-78
2021/12/26 11:42:21;;;;;;;8.10;3.45;;;;;;;;;;5077555;28;20126;-78
2021/12/26 11:44:51;;;;;;;7.13;3.47;;;;;;;;;;5001841;28;20599;-78
2021/12/26 11:47:40;;;;;;;8.65;3.40;;;;;;;;;;5020749;28;21032;-78
2021/12/26 11:50:13;;;;;;;11.52;4.82;;;;;;;;;;5048509;28;20503;-78
2021/12/26 11:52:58;;;;;;;8.15;3.72;;;;;;;;;;5084477;28;20145;-78
2021/12/26 11:55:27;;;;;;;8.55;3.92;;;;;;;;;;5074653;28;20206;-78
2021/12/26 11:58:12;;;;;;;8.52;3.70;;;;;;;;;;5089470;27;20111;-78
2021/12/26 12:00:41;;;;;;;8.90;3.42;;;;;;;;;;5070959;28;20531;-79
2021/12/26 12:03:22;;;;;;;7.95;3.83;;;;;;;;;;5076919;28;20052;-78
2021/12/26 12:05:49;;;;;;;8.35;3.65;;;;;;;;;;5069949;28;20045;-78
2021/12/26 12:08:17;;;;;;;7.80;3.88;;;;;;;;;;5074329;28;20052;-78
2021/12/26 12:10:47;;;;;;;8.35;4.20;;;;;;;;;;5081044;28;20049;-78
2021/12/26 12:13:34;;;;;;;8.45;4.20;;;;;;;;;;5085652;28;20126;-78
2021/12/26 12:16:07;;;;;;;8.48;3.67;;;;;;;;;;5078250;28;20041;-79
2021/12/26 12:18:35;;;;;;;10.32;4.45;;;;;;;;;;5068417;28;20511;-78
2021/12/26 12:21:10;;;;;;;10.02;4.90;;;;;;;;;;5082811;28;20483;-78
2021/12/26 12:23:56;;;;;;;8.32;3.70;;;;;;;;;;5082641;28;20151;-79
2021/12/26 12:26:41;;;;;;;11.07;5.22;;;;;;;;;;5077042;28;20103;-79
2021/12/26 12:29:08;;;;;;;9.07;4.05;;;;;;;;;;5077922;28;20052;-79
2021/12/26 12:31:35;;;;;;;10.73;4.97;;;;;;;;;;5082338;28;20045;-79
2021/12/26 12:34:01;;;;;;;10.27;4.45;;;;;;;;;;5077244;28;20064;-79
2021/12/26 12:36:32;;;;;;;8.65;4.25;;;;;;;;;;5084524;28;20057;-79
2021/12/26 12:39:19;;;;;;;11.27;4.65;;;;;;;;;;5074235;28;20504;-79
2021/12/26 12:41:47;;;;;;;10.80;4.30;;;;;;;;;;5072402;28;20053;-79
2021/12/26 12:44:25;;;;;;;9.95;4.10;;;;;;;;;;5073766;28;20159;-79
2021/12/26 12:46:53;;;;;;;9.38;4.00;;;;;;;;;;5075342;28;20107;-79
2021/12/26 12:49:20;;;;;;;9.02;3.80;;;;;;;;;;5076271;28;20064;-79
2021/12/26 12:51:48;;;;;;;10.25;4.72;;;;;;;;;;5075123;28;20072;-79
2021/12/26 12:54:30;;;;;;;9.75;4.35;;;;;;;;;;5079320;28;20115;-79
2021/12/26 12:57:05;;;;;;;6.80;3.67;;;;;;;;;;5089287;28;20572;-79
2021/12/26 12:59:36;;;;;;;8.38;4.10;;;;;;;;;;5079637;28;20519;-79
2021/12/26 13:02:05;;;;;;;9.75;4.30;;;;;;;;;;5077395;28;20056;-79
2021/12/26 13:04:43;;;;;;;11.32;4.63;;;;;;;;;;5078789;28;20052;-79
2021/12/26 13:07:14;;;;;;;13.23;4.75;;;;;;;;;;5077945;28;20937;-79
2021/12/26 13:09:45;;;;;;;8.30;3.92;;;;;;;;;;5082988;28;20057;-79
2021/12/26 13:12:13;;;;;;;9.02;3.67;;;;;;;;;;5086196;28;20118;-79
2021/12/26 13:14:50;;;;;;;9.18;4.32;;;;;;;;;;5088205;28;20536;-79
2021/12/26 13:17:25;;;;;;;8.52;4.40;;;;;;;;;;5088610;28;20143;-79
2021/12/26 13:19:54;;;;;;;9.43;3.72;;;;;;;;;;5087071;28;20056;-78
2021/12/26 13:22:21;;;;;;;10.70;4.80;;;;;;;;;;5084047;28;20083;-79
2021/12/26 13:24:47;;;;;;;9.60;4.50;;;;;;;;;;5082799;28;20052;-79
2021/12/26 13:27:21;;;;;;;9.95;4.32;;;;;;;;;;5073616;28;20067;-79
2021/12/26 13:29:48;;;;;;;9.75;4.40;;;;;;;;;;5080363;28;20049;-79
2021/12/26 13:32:15;;;;;;;13.18;5.18;;;;;;;;;;5085516;28;20048;-79
2021/12/26 13:34:50;;;;;;;11.32;5.00;;;;;;;;;;5078745;28;20057;-79
2021/12/26 13:37:16;;;;;;;11.88;4.50;;;;;;;;;;5075759;28;20074;-79
2021/12/26 13:39:43;;;;;;;7.65;3.97;;;;;;;;;;5085887;28;20049;-79
2021/12/26 13:42:09;;;;;;;8.88;4.40;;;;;;;;;;5078753;28;20076;-79
2021/12/26 13:44:42;;;;;;;11.35;5.43;;;;;;;;;;5088191;28;20053;-79
2021/12/26 13:47:08;;;;;;;9.82;4.60;;;;;;;;;;5083806;28;20056;-79
2021/12/26 13:49:35;;;;;;;11.23;4.75;;;;;;;;;;5073552;28;20111;-79
2021/12/26 13:52:02;;;;;;;9.85;5.18;;;;;;;;;;5072526;28;20134;-79
2021/12/26 13:54:31;;;;;;;9.88;4.50;;;;;;;;;;5080172;28;20519;-79
2021/12/26 13:56:59;;;;;;;10.38;4.82;;;;;;;;;;5075817;28;20361;-77
2021/12/26 13:59:36;;;;;;;10.57;4.60;;;;;;;;;;5083654;28;20091;-77
2021/12/26 14:02:07;;;;;;;12.60;4.93;;;;;;;;;;5075406;28;20102;-78
2021/12/26 14:04:39;;;;;;;9.50;4.60;;;;;;;;;;5076779;28;20598;-77
2021/12/26 14:07:09;;;;;;;9.00;4.43;;;;;;;;;;5075887;28;20084;-78
2021/12/26 14:09:44;;;;;;;14.20;5.30;;;;;;;;;;5080585;28;20111;-77
2021/12/26 14:12:30;;;;;;;10.45;5.05;;;;;;;;;;5073560;28;20590;-78
2021/12/26 14:15:30;;;;;;;8.48;4.70;;;;;;;;;;5080668;28;20102;-78
2021/12/26 14:18:03;;;;;;;10.90;4.88;;;;;;;;;;5079461;28;20385;-77
2021/12/26 14:20:42;;;;;;;10.30;4.93;;;;;;;;;;5076899;28;20049;-79
2021/12/26 14:23:22;;;;;;;10.90;5.30;;;;;;;;;;5088085;28;20080;-78
2021/12/26 14:25:50;;;;;;;12.23;5.50;;;;;;;;;;5079678;28;20118;-78
2021/12/26 14:28:18;;;;;;;10.68;5.10;;;;;;;;;;5073885;28;20138;-78
2021/12/26 14:30:51;;;;;;;11.98;5.60;;;;;;;;;;5078484;28;20075;-80
2021/12/26 14:33:17;;;;;;;15.00;7.53;;;;;;;;;;5074566;28;20656;-79
2021/12/26 14:35:45;;;;;;;15.75;7.18;;;;;;;;;;5071876;28;20057;-79
2021/12/26 14:38:16;;;;;;;12.07;5.72;;;;;;;;;;5072001;28;20111;-79
2021/12/26 14:40:59;;;;;;;11.48;5.97;;;;;;;;;;5071302;28;20574;-79
2021/12/26 14:43:26;;;;;;;24.02;11.77;;;;;;;;;;5067873;28;20057;-78
2021/12/26 14:45:56;;;;;;;11.80;6.20;;;;;;;;;;5074410;28;20053;-78
2021/12/26 14:48:27;;;;;;;10.65;5.55;;;;;;;;;;5068339;28;20049;-79
2021/12/26 14:50:54;;;;;;;11.35;5.75;;;;;;;;;;5072731;28;20083;-77
2021/12/26 14:53:21;;;;;;;10.93;5.18;;;;;;;;;;5067727;28;20110;-78
2021/12/26 14:56:04;;;;;;;12.75;5.07;;;;;;;;;;5070315;28;20056;-79